sensor_id;sensor_type;location;lat;lon;timestamp;P1;durP1;ratioP1;P2;durP2;ratioP2
18695;SDS011;22617;43.690;27.956;2022-11-14T00:01:52;15.03;;;8.33;;
18695;SDS011;22617;43.690;27.956;2022-11-14T00:07:16;13.97;;;8.23;;
18695;SDS011;22617;43.690;27.956;2022-11-14T00:12:37;16.60;;;8.73;;
18695;SDS011;22617;43.690;27.956;2022-11-14T00:18:00;19.97;;;9.90;;
18695;SDS011;22617;43.690;27.956;2022-11-14T00:23:23;23.83;;;10.73;;
18695;SDS011;22617;43.690;27.956;2022-11-14T00:28:45;21.83;;;10.57;;
18695;SDS011;22617;43.690;27.956;2022-11-14T00:34:07;20.23;;;9.50;;
18695;SDS011;22617;43.690;27.956;2022-11-14T00:39:31;21.17;;;11.03;;
18695;SDS011;22617;43.690;27.956;2022-11-14T00:44:52;20.30;;;10.63;;
18695;SDS011;22617;43.690;27.956;2022-11-14T00:50:15;22.67;;;10.40;;
18695;SDS011;22617;43.690;27.956;2022-11-14T00:55:38;21.77;;;9.87;;
18695;SDS011;22617;43.690;27.956;2022-11-14T01:01:00;24.93;;;11.00;;
18695;SDS011;22617;43.690;27.956;2022-11-14T01:06:23;23.50;;;11.27;;
18695;SDS011;22617;43.690;27.956;2022-11-14T01:11:46;32.90;;;12.00;;
18695;SDS011;22617;43.690;27.956;2022-11-14T01:17:07;36.43;;;13.10;;
18695;SDS011;22617;43.690;27.956;2022-11-14T01:22:29;32.57;;;12.60;;
18695;SDS011;22617;43.690;27.956;2022-11-14T01:27:53;29.00;;;11.97;;
18695;SDS011;22617;43.690;27.956;2022-11-14T01:33:15;34.37;;;13.07;;
18695;SDS011;22617;43.690;27.956;2022-11-14T01:38:37;32.07;;;13.03;;
18695;SDS011;22617;43.690;27.956;2022-11-14T01:44:00;36.70;;;16.17;;
18695;SDS011;22617;43.690;27.956;2022-11-14T01:49:23;26.27;;;13.13;;
18695;SDS011;22617;43.690;27.956;2022-11-14T01:54:47;25.73;;;12.87;;
18695;SDS011;22617;43.690;27.956;2022-11-14T02:00:15;23.93;;;11.90;;
18695;SDS011;22617;43.690;27.956;2022-11-14T02:05:36;23.30;;;12.33;;
18695;SDS011;22617;43.690;27.956;2022-11-14T02:10:59;21.33;;;11.20;;
18695;SDS011;22617;43.690;27.956;2022-11-14T02:16:22;21.93;;;12.20;;
18695;SDS011;22617;43.690;27.956;2022-11-14T02:21:46;21.57;;;11.43;;
18695;SDS011;22617;43.690;27.956;2022-11-14T02:27:08;27.23;;;13.17;;
18695;SDS011;22617;43.690;27.956;2022-11-14T02:32:31;32.57;;;13.73;;
18695;SDS011;22617;43.690;27.956;2022-11-14T02:38:15;25.53;;;13.13;;
18695;SDS011;22617;43.690;27.956;2022-11-14T02:43:36;23.50;;;12.80;;
18695;SDS011;22617;43.690;27.956;2022-11-14T02:48:58;29.83;;;12.30;;
18695;SDS011;22617;43.690;27.956;2022-11-14T02:54:21;23.70;;;12.03;;
18695;SDS011;22617;43.690;27.956;2022-11-14T02:59:43;25.57;;;11.93;;
18695;SDS011;22617;43.690;27.956;2022-11-14T03:05:05;24.57;;;11.73;;
18695;SDS011;22617;43.690;27.956;2022-11-14T03:10:29;24.43;;;11.90;;
18695;SDS011;22617;43.690;27.956;2022-11-14T03:15:51;23.90;;;11.70;;
18695;SDS011;22617;43.690;27.956;2022-11-14T03:21:13;25.97;;;12.00;;
18695;SDS011;22617;43.690;27.956;2022-11-14T03:26:37;24.27;;;12.30;;
18695;SDS011;22617;43.690;27.956;2022-11-14T03:31:59;27.67;;;12.00;;
18695;SDS011;22617;43.690;27.956;2022-11-14T03:37:21;28.57;;;12.50;;
18695;SDS011;22617;43.690;27.956;2022-11-14T03:42:44;34.93;;;14.20;;
18695;SDS011;22617;43.690;27.956;2022-11-14T03:48:05;31.93;;;13.40;;
18695;SDS011;22617;43.690;27.956;2022-11-14T03:53:27;38.83;;;15.57;;
18695;SDS011;22617;43.690;27.956;2022-11-14T03:58:51;48.07;;;15.77;;
18695;SDS011;22617;43.690;27.956;2022-11-14T04:04:13;46.97;;;15.97;;
18695;SDS011;22617;43.690;27.956;2022-11-14T04:09:35;47.77;;;15.60;;
18695;SDS011;22617;43.690;27.956;2022-11-14T04:14:59;41.97;;;16.00;;
18695;SDS011;22617;43.690;27.956;2022-11-14T04:20:21;36.73;;;15.10;;
18695;SDS011;22617;43.690;27.956;2022-11-14T04:25:43;39.40;;;16.03;;
18695;SDS011;22617;43.690;27.956;2022-11-14T04:31:08;47.20;;;17.23;;
18695;SDS011;22617;43.690;27.956;2022-11-14T04:36:30;34.37;;;14.87;;
18695;SDS011;22617;43.690;27.956;2022-11-14T04:41:51;40.37;;;16.27;;
18695;SDS011;22617;43.690;27.956;2022-11-14T04:47:15;44.83;;;16.97;;
18695;SDS011;22617;43.690;27.956;2022-11-14T04:52:36;41.57;;;16.07;;
18695;SDS011;22617;43.690;27.956;2022-11-14T04:57:58;45.83;;;17.50;;
18695;SDS011;22617;43.690;27.956;2022-11-14T05:03:23;46.67;;;17.20;;
18695;SDS011;22617;43.690;27.956;2022-11-14T05:08:45;38.87;;;15.23;;
18695;SDS011;22617;43.690;27.956;2022-11-14T05:14:08;42.20;;;16.13;;
18695;SDS011;22617;43.690;27.956;2022-11-14T05:19:31;42.60;;;17.07;;
18695;SDS011;22617;43.690;27.956;2022-11-14T05:24:53;39.13;;;16.13;;
18695;SDS011;22617;43.690;27.956;2022-11-14T05:30:15;43.37;;;17.40;;
18695;SDS011;22617;43.690;27.956;2022-11-14T05:35:39;46.37;;;18.40;;
18695;SDS011;22617;43.690;27.956;2022-11-14T05:41:03;42.40;;;17.43;;
18695;SDS011;22617;43.690;27.956;2022-11-14T05:46:26;42.53;;;17.30;;
18695;SDS011;22617;43.690;27.956;2022-11-14T05:51:49;42.20;;;17.57;;
18695;SDS011;22617;43.690;27.956;2022-11-14T05:57:11;43.73;;;17.63;;
18695;SDS011;22617;43.690;27.956;2022-11-14T06:02:33;44.93;;;17.80;;
18695;SDS011;22617;43.690;27.956;2022-11-14T06:07:57;40.77;;;16.70;;
18695;SDS011;22617;43.690;27.956;2022-11-14T06:13:19;45.67;;;16.67;;
18695;SDS011;22617;43.690;27.956;2022-11-14T06:18:43;43.07;;;17.17;;
18695;SDS011;22617;43.690;27.956;2022-11-14T06:24:07;49.50;;;19.60;;
18695;SDS011;22617;43.690;27.956;2022-11-14T06:29:29;51.60;;;22.10;;
18695;SDS011;22617;43.690;27.956;2022-11-14T06:34:55;51.37;;;19.87;;
18695;SDS011;22617;43.690;27.956;2022-11-14T06:40:18;54.20;;;23.33;;
18695;SDS011;22617;43.690;27.956;2022-11-14T06:45:39;55.77;;;22.30;;
18695;SDS011;22617;43.690;27.956;2022-11-14T06:51:02;53.63;;;22.00;;
18695;SDS011;22617;43.690;27.956;2022-11-14T06:56:26;50.07;;;20.93;;
18695;SDS011;22617;43.690;27.956;2022-11-14T07:01:48;52.03;;;21.47;;
18695;SDS011;22617;43.690;27.956;2022-11-14T07:07:10;52.87;;;21.57;;
18695;SDS011;22617;43.690;27.956;2022-11-14T07:12:34;57.57;;;21.77;;
18695;SDS011;22617;43.690;27.956;2022-11-14T07:17:56;62.70;;;22.50;;
18695;SDS011;22617;43.690;27.956;2022-11-14T07:23:19;53.47;;;20.97;;
18695;SDS011;22617;43.690;27.956;2022-11-14T07:28:43;51.20;;;20.43;;
18695;SDS011;22617;43.690;27.956;2022-11-14T07:34:11;51.30;;;22.20;;
18695;SDS011;22617;43.690;27.956;2022-11-14T07:39:33;52.90;;;20.77;;
18695;SDS011;22617;43.690;27.956;2022-11-14T07:44:56;65.60;;;24.10;;
18695;SDS011;22617;43.690;27.956;2022-11-14T07:50:18;56.53;;;22.90;;
18695;SDS011;22617;43.690;27.956;2022-11-14T07:55:40;62.83;;;22.77;;
18695;SDS011;22617;43.690;27.956;2022-11-14T08:01:04;63.77;;;23.53;;
18695;SDS011;22617;43.690;27.956;2022-11-14T08:06:28;62.80;;;24.23;;
18695;SDS011;22617;43.690;27.956;2022-11-14T08:11:50;69.20;;;25.97;;
18695;SDS011;22617;43.690;27.956;2022-11-14T08:17:13;65.57;;;24.60;;
18695;SDS011;22617;43.690;27.956;2022-11-14T08:22:36;60.23;;;24.33;;
18695;SDS011;22617;43.690;27.956;2022-11-14T08:27:58;66.33;;;25.70;;
18695;SDS011;22617;43.690;27.956;2022-11-14T08:33:21;59.43;;;22.67;;
18695;SDS011;22617;43.690;27.956;2022-11-14T08:38:43;68.27;;;25.37;;
18695;SDS011;22617;43.690;27.956;2022-11-14T08:44:05;72.47;;;27.13;;
18695;SDS011;22617;43.690;27.956;2022-11-14T08:49:29;67.30;;;25.27;;
18695;SDS011;22617;43.690;27.956;2022-11-14T08:54:51;67.90;;;24.53;;
18695;SDS011;22617;43.690;27.956;2022-11-14T09:00:13;67.53;;;25.53;;
18695;SDS011;22617;43.690;27.956;2022-11-14T09:05:38;69.57;;;25.10;;
18695;SDS011;22617;43.690;27.956;2022-11-14T09:11:00;66.93;;;26.23;;
18695;SDS011;22617;43.690;27.956;2022-11-14T09:16:25;62.13;;;24.00;;
18695;SDS011;22617;43.690;27.956;2022-11-14T09:21:49;65.60;;;23.57;;
18695;SDS011;22617;43.690;27.956;2022-11-14T09:27:10;65.27;;;23.73;;
18695;SDS011;22617;43.690;27.956;2022-11-14T09:32:33;61.67;;;21.80;;
18695;SDS011;22617;43.690;27.956;2022-11-14T09:37:59;56.90;;;22.17;;
18695;SDS011;22617;43.690;27.956;2022-11-14T09:43:25;53.70;;;20.53;;
18695;SDS011;22617;43.690;27.956;2022-11-14T09:49:02;53.67;;;20.17;;
18695;SDS011;22617;43.690;27.956;2022-11-14T09:54:34;55.90;;;21.13;;
18695;SDS011;22617;43.690;27.956;2022-11-14T10:00:11;51.50;;;19.97;;
18695;SDS011;22617;43.690;27.956;2022-11-14T10:05:42;51.30;;;19.00;;
18695;SDS011;22617;43.690;27.956;2022-11-14T10:11:20;51.80;;;18.37;;
18695;SDS011;22617;43.690;27.956;2022-11-14T10:16:47;50.07;;;18.30;;
18695;SDS011;22617;43.690;27.956;2022-11-14T10:22:21;49.63;;;18.53;;
18695;SDS011;22617;43.690;27.956;2022-11-14T10:28:01;46.67;;;18.07;;
18695;SDS011;22617;43.690;27.956;2022-11-14T10:33:40;45.20;;;18.83;;
18695;SDS011;22617;43.690;27.956;2022-11-14T10:39:10;51.83;;;19.93;;
18695;SDS011;22617;43.690;27.956;2022-11-14T10:44:41;45.67;;;18.23;;
18695;SDS011;22617;43.690;27.956;2022-11-14T10:50:14;50.27;;;18.60;;
18695;SDS011;22617;43.690;27.956;2022-11-14T10:55:40;47.13;;;17.80;;
18695;SDS011;22617;43.690;27.956;2022-11-14T11:01:33;56.93;;;22.87;;
18695;SDS011;22617;43.690;27.956;2022-11-14T11:07:16;57.17;;;22.87;;
18695;SDS011;22617;43.690;27.956;2022-11-14T11:12:54;43.77;;;19.07;;
18695;SDS011;22617;43.690;27.956;2022-11-14T11:18:24;46.00;;;17.83;;
18695;SDS011;22617;43.690;27.956;2022-11-14T11:23:49;46.73;;;18.80;;
18695;SDS011;22617;43.690;27.956;2022-11-14T11:29:14;49.50;;;18.10;;
18695;SDS011;22617;43.690;27.956;2022-11-14T11:34:38;50.27;;;18.87;;
18695;SDS011;22617;43.690;27.956;2022-11-14T11:40:02;52.93;;;20.00;;
18695;SDS011;22617;43.690;27.956;2022-11-14T11:45:27;39.93;;;16.63;;
18695;SDS011;22617;43.690;27.956;2022-11-14T11:50:52;46.70;;;18.60;;
18695;SDS011;22617;43.690;27.956;2022-11-14T11:56:15;42.70;;;17.20;;
18695;SDS011;22617;43.690;27.956;2022-11-14T12:01:41;46.40;;;17.40;;
18695;SDS011;22617;43.690;27.956;2022-11-14T12:07:07;50.07;;;18.50;;
18695;SDS011;22617;43.690;27.956;2022-11-14T12:12:37;40.80;;;16.27;;
18695;SDS011;22617;43.690;27.956;2022-11-14T12:18:21;50.00;;;18.37;;
18695;SDS011;22617;43.690;27.956;2022-11-14T12:24:10;38.43;;;15.67;;
18695;SDS011;22617;43.690;27.956;2022-11-14T12:29:54;29.77;;;12.97;;
18695;SDS011;22617;43.690;27.956;2022-11-14T12:35:30;29.77;;;13.13;;
18695;SDS011;22617;43.690;27.956;2022-11-14T12:40:56;34.30;;;14.20;;
18695;SDS011;22617;43.690;27.956;2022-11-14T12:46:19;32.57;;;13.37;;
18695;SDS011;22617;43.690;27.956;2022-11-14T12:51:48;30.97;;;13.60;;
18695;SDS011;22617;43.690;27.956;2022-11-14T12:57:16;30.67;;;13.37;;
18695;SDS011;22617;43.690;27.956;2022-11-14T13:03:19;29.93;;;12.47;;
18695;SDS011;22617;43.690;27.956;2022-11-14T13:14:48;30.93;;;13.77;;
18695;SDS011;22617;43.690;27.956;2022-11-14T13:20:30;29.07;;;12.90;;
18695;SDS011;22617;43.690;27.956;2022-11-14T13:32:12;26.57;;;12.37;;
18695;SDS011;22617;43.690;27.956;2022-11-14T13:38:28;26.37;;;12.23;;
18695;SDS011;22617;43.690;27.956;2022-11-14T13:44:25;30.07;;;13.73;;
18695;SDS011;22617;43.690;27.956;2022-11-14T13:50:09;23.93;;;11.77;;
18695;SDS011;22617;43.690;27.956;2022-11-14T13:55:37;24.80;;;11.60;;
18695;SDS011;22617;43.690;27.956;2022-11-14T14:01:10;21.20;;;11.00;;
18695;SDS011;22617;43.690;27.956;2022-11-14T14:06:46;20.47;;;10.43;;
18695;SDS011;22617;43.690;27.956;2022-11-14T14:12:22;18.40;;;10.17;;
18695;SDS011;22617;43.690;27.956;2022-11-14T14:17:57;17.30;;;8.33;;
18695;SDS011;22617;43.690;27.956;2022-11-14T14:23:31;17.83;;;8.67;;
18695;SDS011;22617;43.690;27.956;2022-11-14T14:29:03;13.67;;;8.17;;
18695;SDS011;22617;43.690;27.956;2022-11-14T14:34:35;18.73;;;10.40;;
18695;SDS011;22617;43.690;27.956;2022-11-14T14:40:00;16.90;;;9.03;;
18695;SDS011;22617;43.690;27.956;2022-11-14T14:45:24;19.13;;;9.63;;
18695;SDS011;22617;43.690;27.956;2022-11-14T14:50:48;23.37;;;11.13;;
18695;SDS011;22617;43.690;27.956;2022-11-14T14:56:18;24.30;;;11.43;;
18695;SDS011;22617;43.690;27.956;2022-11-14T15:01:41;21.87;;;11.47;;
18695;SDS011;22617;43.690;27.956;2022-11-14T15:07:03;21.90;;;11.30;;
18695;SDS011;22617;43.690;27.956;2022-11-14T15:12:28;23.13;;;11.63;;
18695;SDS011;22617;43.690;27.956;2022-11-14T15:17:51;26.10;;;13.10;;
18695;SDS011;22617;43.690;27.956;2022-11-14T15:23:18;27.50;;;12.20;;
18695;SDS011;22617;43.690;27.956;2022-11-14T15:28:42;23.67;;;12.07;;
18695;SDS011;22617;43.690;27.956;2022-11-14T15:34:05;26.63;;;13.23;;
18695;SDS011;22617;43.690;27.956;2022-11-14T15:39:43;27.97;;;12.60;;
18695;SDS011;22617;43.690;27.956;2022-11-14T15:45:20;23.97;;;12.37;;
18695;SDS011;22617;43.690;27.956;2022-11-14T15:50:48;23.83;;;12.17;;
18695;SDS011;22617;43.690;27.956;2022-11-14T15:56:10;27.97;;;12.73;;
18695;SDS011;22617;43.690;27.956;2022-11-14T16:01:36;24.73;;;11.50;;
18695;SDS011;22617;43.690;27.956;2022-11-14T16:06:58;27.10;;;13.00;;
18695;SDS011;22617;43.690;27.956;2022-11-14T16:12:20;25.50;;;12.90;;
18695;SDS011;22617;43.690;27.956;2022-11-14T16:17:44;22.50;;;11.87;;
18695;SDS011;22617;43.690;27.956;2022-11-14T16:23:08;28.97;;;13.47;;
18695;SDS011;22617;43.690;27.956;2022-11-14T16:28:32;23.13;;;11.70;;
18695;SDS011;22617;43.690;27.956;2022-11-14T16:33:56;22.33;;;11.53;;
18695;SDS011;22617;43.690;27.956;2022-11-14T16:39:18;25.57;;;11.87;;
18695;SDS011;22617;43.690;27.956;2022-11-14T16:44:40;22.10;;;10.53;;
18695;SDS011;22617;43.690;27.956;2022-11-14T16:50:11;18.43;;;10.10;;
18695;SDS011;22617;43.690;27.956;2022-11-14T16:55:33;19.57;;;9.37;;
18695;SDS011;22617;43.690;27.956;2022-11-14T17:00:55;17.30;;;8.37;;
18695;SDS011;22617;43.690;27.956;2022-11-14T17:06:19;16.20;;;9.00;;
18695;SDS011;22617;43.690;27.956;2022-11-14T17:11:41;16.97;;;8.90;;
18695;SDS011;22617;43.690;27.956;2022-11-14T17:17:04;16.93;;;8.50;;
18695;SDS011;22617;43.690;27.956;2022-11-14T17:22:28;25.67;;;11.43;;
18695;SDS011;22617;43.690;27.956;2022-11-14T17:27:50;15.53;;;8.47;;
18695;SDS011;22617;43.690;27.956;2022-11-14T17:33:11;14.20;;;7.27;;
18695;SDS011;22617;43.690;27.956;2022-11-14T17:38:36;13.47;;;7.83;;
18695;SDS011;22617;43.690;27.956;2022-11-14T17:43:59;12.97;;;6.87;;
18695;SDS011;22617;43.690;27.956;2022-11-14T17:49:22;15.97;;;7.87;;
18695;SDS011;22617;43.690;27.956;2022-11-14T17:54:46;13.13;;;7.53;;
18695;SDS011;22617;43.690;27.956;2022-11-14T18:00:08;17.60;;;8.40;;
18695;SDS011;22617;43.690;27.956;2022-11-14T18:05:31;15.60;;;8.23;;
18695;SDS011;22617;43.690;27.956;2022-11-14T18:10:54;20.03;;;9.03;;
18695;SDS011;22617;43.690;27.956;2022-11-14T18:16:20;17.47;;;9.03;;
18695;SDS011;22617;43.690;27.956;2022-11-14T18:21:54;18.33;;;9.10;;
18695;SDS011;22617;43.690;27.956;2022-11-14T18:27:17;17.03;;;8.37;;
18695;SDS011;22617;43.690;27.956;2022-11-14T18:32:39;16.13;;;8.00;;
18695;SDS011;22617;43.690;27.956;2022-11-14T18:38:01;16.13;;;7.37;;
18695;SDS011;22617;43.690;27.956;2022-11-14T18:43:25;14.43;;;7.60;;
18695;SDS011;22617;43.690;27.956;2022-11-14T18:48:51;12.07;;;7.20;;
18695;SDS011;22617;43.690;27.956;2022-11-14T18:54:14;20.47;;;9.27;;
18695;SDS011;22617;43.690;27.956;2022-11-14T18:59:39;22.87;;;9.43;;
18695;SDS011;22617;43.690;27.956;2022-11-14T19:05:00;17.07;;;7.60;;
18695;SDS011;22617;43.690;27.956;2022-11-14T19:10:25;16.40;;;9.10;;
18695;SDS011;22617;43.690;27.956;2022-11-14T19:15:48;15.37;;;7.80;;
18695;SDS011;22617;43.690;27.956;2022-11-14T19:21:10;17.13;;;9.63;;
18695;SDS011;22617;43.690;27.956;2022-11-14T19:26:32;16.20;;;9.80;;
18695;SDS011;22617;43.690;27.956;2022-11-14T19:31:56;16.40;;;8.53;;
18695;SDS011;22617;43.690;27.956;2022-11-14T19:37:18;18.20;;;10.37;;
18695;SDS011;22617;43.690;27.956;2022-11-14T19:42:39;19.83;;;10.73;;
18695;SDS011;22617;43.690;27.956;2022-11-14T19:48:03;20.10;;;10.40;;
18695;SDS011;22617;43.690;27.956;2022-11-14T19:53:26;20.77;;;9.77;;
18695;SDS011;22617;43.690;27.956;2022-11-14T19:58:49;19.73;;;11.07;;
18695;SDS011;22617;43.690;27.956;2022-11-14T20:04:14;17.70;;;9.80;;
18695;SDS011;22617;43.690;27.956;2022-11-14T20:09:36;17.77;;;8.87;;
18695;SDS011;22617;43.690;27.956;2022-11-14T20:14:58;19.13;;;10.50;;
18695;SDS011;22617;43.690;27.956;2022-11-14T20:20:21;15.70;;;8.37;;
18695;SDS011;22617;43.690;27.956;2022-11-14T20:25:43;14.90;;;8.07;;
18695;SDS011;22617;43.690;27.956;2022-11-14T20:31:13;15.43;;;7.63;;
18695;SDS011;22617;43.690;27.956;2022-11-14T20:36:38;12.73;;;6.87;;
18695;SDS011;22617;43.690;27.956;2022-11-14T20:42:21;12.90;;;7.30;;
18695;SDS011;22617;43.690;27.956;2022-11-14T20:47:42;13.03;;;7.10;;
18695;SDS011;22617;43.690;27.956;2022-11-14T20:53:06;15.67;;;6.70;;
18695;SDS011;22617;43.690;27.956;2022-11-14T20:58:27;10.20;;;6.30;;
18695;SDS011;22617;43.690;27.956;2022-11-14T21:03:49;14.93;;;6.90;;
18695;SDS011;22617;43.690;27.956;2022-11-14T21:09:13;15.80;;;6.93;;
18695;SDS011;22617;43.690;27.956;2022-11-14T21:14:34;14.23;;;7.43;;
18695;SDS011;22617;43.690;27.956;2022-11-14T21:19:56;9.97;;;5.67;;
18695;SDS011;22617;43.690;27.956;2022-11-14T21:25:20;12.37;;;6.07;;
18695;SDS011;22617;43.690;27.956;2022-11-14T21:30:42;11.43;;;6.10;;
18695;SDS011;22617;43.690;27.956;2022-11-14T21:36:03;13.20;;;6.50;;
18695;SDS011;22617;43.690;27.956;2022-11-14T21:41:47;12.23;;;6.60;;
18695;SDS011;22617;43.690;27.956;2022-11-14T21:47:09;14.30;;;6.73;;
18695;SDS011;22617;43.690;27.956;2022-11-14T21:52:31;13.80;;;6.10;;
18695;SDS011;22617;43.690;27.956;2022-11-14T21:57:54;12.03;;;5.80;;
18695;SDS011;22617;43.690;27.956;2022-11-14T22:03:16;10.67;;;5.83;;
18695;SDS011;22617;43.690;27.956;2022-11-14T22:08:56;11.17;;;5.80;;
18695;SDS011;22617;43.690;27.956;2022-11-14T22:14:19;12.17;;;5.77;;
18695;SDS011;22617;43.690;27.956;2022-11-14T22:19:41;11.50;;;5.40;;
18695;SDS011;22617;43.690;27.956;2022-11-14T22:25:04;11.00;;;5.63;;
18695;SDS011;22617;43.690;27.956;2022-11-14T22:30:28;10.00;;;6.17;;
18695;SDS011;22617;43.690;27.956;2022-11-14T22:35:50;12.03;;;6.10;;
18695;SDS011;22617;43.690;27.956;2022-11-14T22:41:12;13.17;;;6.03;;
18695;SDS011;22617;43.690;27.956;2022-11-14T22:46:36;14.07;;;6.43;;
18695;SDS011;22617;43.690;27.956;2022-11-14T22:51:58;13.00;;;6.03;;
18695;SDS011;22617;43.690;27.956;2022-11-14T22:57:19;13.80;;;6.07;;
18695;SDS011;22617;43.690;27.956;2022-11-14T23:02:42;12.20;;;6.20;;
18695;SDS011;22617;43.690;27.956;2022-11-14T23:08:04;15.13;;;6.77;;
18695;SDS011;22617;43.690;27.956;2022-11-14T23:13:26;11.50;;;6.47;;
18695;SDS011;22617;43.690;27.956;2022-11-14T23:18:51;13.73;;;7.40;;
18695;SDS011;22617;43.690;27.956;2022-11-14T23:24:14;12.73;;;6.60;;
18695;SDS011;22617;43.690;27.956;2022-11-14T23:29:36;14.87;;;6.53;;
18695;SDS011;22617;43.690;27.956;2022-11-14T23:34:59;12.33;;;6.17;;
18695;SDS011;22617;43.690;27.956;2022-11-14T23:40:21;14.30;;;6.60;;
18695;SDS011;22617;43.690;27.956;2022-11-14T23:45:43;13.30;;;6.60;;
18695;SDS011;22617;43.690;27.956;2022-11-14T23:51:08;14.33;;;6.90;;
18695;SDS011;22617;43.690;27.956;2022-11-14T23:56:32;12.30;;;6.80;;
